createdAt,value
2019-03-20T00:00:00.906Z,59.35
2019-03-20T00:02:29.093Z,59.55
2019-03-20T00:04:57.209Z,60.18
2019-03-20T00:07:25.379Z,65.23
2019-03-20T00:09:53.750Z,60.13
2019-03-20T00:12:21.956Z,60.06
2019-03-20T00:14:50.178Z,67.20
2019-03-20T00:17:18.387Z,61.32
2019-03-20T00:19:46.551Z,61.04
2019-03-20T00:22:14.683Z,60.26
2019-03-20T00:24:42.905Z,63.90
2019-03-20T00:27:11.130Z,60.05
2019-03-20T00:29:39.346Z,59.51
2019-03-20T00:32:07.532Z,59.00
2019-03-20T00:34:35.905Z,59.31
2019-03-20T00:37:04.053Z,58.89
2019-03-20T00:39:32.404Z,58.92
2019-03-20T00:42:00.640Z,59.04
2019-03-20T00:44:28.956Z,68.25
2019-03-20T00:46:57.152Z,74.66
2019-03-20T00:49:25.408Z,76.79
2019-03-20T00:51:53.575Z,68.37
2019-03-20T00:54:21.758Z,75.87
2019-03-20T00:56:49.958Z,77.80
2019-03-20T00:59:18.162Z,74.72
2019-03-20T01:01:46.312Z,65.55
2019-03-20T01:04:14.510Z,73.35
2019-03-20T01:06:42.692Z,64.40
2019-03-20T01:09:11.026Z,60.97
2019-03-20T01:11:39.225Z,59.50
2019-03-20T01:14:07.434Z,59.87
2019-03-20T01:16:35.695Z,61.21
2019-03-20T01:19:03.953Z,73.50
2019-03-20T01:21:32.057Z,75.86
2019-03-20T01:24:00.233Z,71.97
2019-03-20T01:26:28.359Z,75.78
2019-03-20T01:28:56.526Z,63.87
2019-03-20T01:31:24.719Z,63.25
2019-03-20T01:33:54.860Z,69.89
2019-03-20T01:36:22.748Z,77.17
2019-03-20T01:38:50.943Z,76.37
2019-03-20T01:41:19.074Z,77.86
2019-03-20T01:43:47.203Z,75.99
2019-03-20T01:46:15.349Z,64.61
2019-03-20T01:48:43.509Z,77.26
2019-03-20T01:51:18.813Z,78.27
2019-03-20T01:53:47.134Z,74.38
2019-03-20T01:56:15.396Z,72.60
2019-03-20T01:58:43.593Z,66.85
2019-03-20T02:01:11.730Z,75.09
2019-03-20T02:03:40.979Z,69.81
2019-03-20T02:06:09.349Z,66.79
2019-03-20T02:08:37.525Z,63.71
2019-03-20T02:11:05.845Z,63.89
2019-03-20T02:13:33.958Z,74.12
2019-03-20T02:16:02.100Z,66.19
2019-03-20T02:18:30.187Z,66.70
2019-03-20T02:21:18.865Z,74.00
2019-03-20T02:23:47.133Z,77.57
2019-03-20T02:26:15.215Z,76.72
2019-03-20T02:28:46.496Z,69.94
2019-03-20T02:31:14.609Z,77.61
2019-03-20T02:33:44.184Z,78.89
2019-03-20T02:36:12.392Z,79.59
2019-03-20T02:38:40.569Z,79.42
2019-03-20T02:41:08.726Z,78.34
2019-03-20T02:43:36.889Z,79.33
2019-03-20T02:46:05.077Z,66.32
2019-03-20T02:48:33.210Z,72.47
2019-03-20T02:51:01.351Z,74.70
2019-03-20T02:53:29.503Z,68.67
2019-03-20T02:55:57.658Z,75.69
2019-03-20T02:58:25.820Z,78.27
2019-03-20T03:00:54.026Z,79.28
2019-03-20T03:03:22.238Z,72.20
2019-03-20T03:05:50.442Z,74.24
2019-03-20T03:08:18.725Z,64.34
2019-03-20T03:10:46.984Z,72.43
2019-03-20T03:13:15.146Z,76.18
2019-03-20T03:15:43.377Z,78.04
2019-03-20T03:18:11.581Z,78.92
2019-03-20T03:20:39.788Z,79.61
2019-03-20T03:23:07.966Z,80.24
2019-03-20T03:25:36.219Z,80.56
2019-03-20T03:28:04.423Z,80.24
2019-03-20T03:30:32.658Z,74.34
2019-03-20T03:33:00.830Z,79.95
2019-03-20T03:35:29.048Z,80.86
2019-03-20T03:37:57.225Z,69.47
2019-03-20T03:40:25.395Z,75.72
2019-03-20T03:42:53.629Z,79.44
2019-03-20T03:45:21.752Z,80.10
2019-03-20T03:47:49.906Z,80.39
2019-03-20T03:50:18.131Z,81.05
2019-03-20T03:52:46.238Z,81.32
2019-03-20T03:55:14.515Z,81.57
2019-03-20T03:57:42.892Z,81.64
2019-03-20T04:00:12.962Z,81.96
2019-03-20T04:02:41.165Z,82.31
2019-03-20T04:05:09.541Z,82.43
2019-03-20T04:07:37.838Z,82.45
2019-03-20T04:10:07.306Z,82.51
2019-03-20T04:12:35.412Z,82.64
2019-03-20T04:15:03.588Z,82.71
2019-03-20T04:17:31.812Z,82.69
2019-03-20T04:20:00.274Z,82.29
2019-03-20T04:22:29.959Z,81.07
2019-03-20T04:24:58.232Z,77.81
2019-03-20T04:27:26.431Z,80.92
2019-03-20T04:29:54.608Z,81.22
2019-03-20T04:32:22.809Z,81.81
2019-03-20T04:34:51.070Z,82.01
2019-03-20T04:37:19.351Z,82.20
2019-03-20T04:39:47.615Z,81.08
2019-03-20T04:42:15.884Z,81.82
2019-03-20T04:44:44.056Z,80.43
2019-03-20T04:47:12.412Z,80.84
2019-03-20T04:49:40.706Z,73.25
2019-03-20T04:52:08.878Z,79.25
2019-03-20T04:54:37.106Z,80.40
2019-03-20T04:57:05.447Z,81.29
2019-03-20T04:59:33.709Z,80.87
2019-03-20T05:02:01.879Z,76.87
2019-03-20T05:04:30.293Z,79.65
2019-03-20T05:06:59.382Z,82.14
2019-03-20T05:09:27.603Z,82.22
2019-03-20T05:11:55.813Z,82.88
2019-03-20T05:14:23.975Z,82.82
2019-03-20T05:16:52.236Z,82.85
2019-03-20T05:19:20.517Z,82.89
2019-03-20T05:21:48.705Z,82.95
2019-03-20T05:24:17.003Z,82.70
2019-03-20T05:26:45.107Z,82.94
2019-03-20T05:29:13.499Z,82.78
2019-03-20T05:31:41.657Z,82.87
2019-03-20T05:34:09.893Z,82.97
2019-03-20T05:36:38.137Z,83.29
2019-03-20T05:39:08.336Z,82.03
2019-03-20T05:41:36.497Z,82.64
2019-03-20T05:44:04.771Z,82.81
2019-03-20T05:46:32.874Z,82.90
2019-03-20T05:49:01.055Z,82.78
2019-03-20T05:51:29.241Z,82.86
2019-03-20T05:53:57.436Z,82.67
2019-03-20T05:56:25.570Z,82.78
2019-03-20T05:58:53.795Z,82.77
2019-03-20T06:01:21.922Z,82.79
2019-03-20T06:03:50.587Z,82.98
2019-03-20T06:06:20.272Z,82.85
2019-03-20T06:08:48.811Z,82.83
2019-03-20T06:11:17.116Z,82.51
2019-03-20T06:13:45.285Z,82.14
2019-03-20T06:16:13.503Z,80.09
2019-03-20T06:18:43.181Z,79.47
2019-03-20T06:21:11.430Z,78.66
2019-03-20T06:23:39.678Z,77.41
2019-03-20T06:26:07.966Z,76.89
2019-03-20T06:28:36.195Z,75.98
2019-03-20T06:31:04.378Z,75.90
2019-03-20T06:33:32.551Z,75.34
2019-03-20T06:36:00.757Z,74.29
2019-03-20T06:38:29.011Z,73.94
2019-03-20T06:40:57.127Z,73.88
2019-03-20T06:43:25.347Z,73.58
2019-03-20T06:45:53.558Z,72.66
2019-03-20T06:48:21.863Z,73.64
2019-03-20T06:50:50.043Z,72.84
2019-03-20T06:53:18.192Z,73.22
2019-03-20T06:55:46.333Z,71.58
2019-03-20T06:58:14.582Z,70.72
2019-03-20T07:00:55.110Z,71.12
2019-03-20T07:03:39.194Z,70.91
2019-03-20T07:06:37.424Z,68.93
2019-03-20T07:09:36.328Z,68.66
2019-03-20T07:12:04.472Z,67.66
2019-03-20T07:14:32.688Z,68.57
2019-03-20T07:17:00.854Z,67.38
2019-03-20T07:19:28.982Z,67.24
2019-03-20T07:21:57.220Z,65.62
2019-03-20T07:24:25.526Z,66.81
2019-03-20T07:26:53.686Z,68.01
2019-03-20T07:29:21.930Z,67.10
2019-03-20T07:31:50.167Z,67.87
2019-03-20T07:34:18.357Z,62.91
2019-03-20T07:36:46.513Z,64.97
2019-03-20T07:39:14.647Z,65.08
2019-03-20T07:41:42.805Z,66.65
2019-03-20T07:44:10.969Z,66.64
2019-03-20T07:46:39.165Z,65.89
2019-03-20T07:49:07.461Z,64.40
2019-03-20T07:51:35.668Z,65.03
2019-03-20T07:54:03.826Z,64.77
2019-03-20T07:56:32.032Z,63.32
2019-03-20T07:59:00.198Z,62.53
2019-03-20T08:01:28.512Z,62.88
2019-03-20T08:03:56.710Z,62.70
2019-03-20T08:06:24.847Z,62.45
2019-03-20T08:08:53.224Z,62.23
2019-03-20T08:11:21.492Z,60.79
2019-03-20T08:13:49.760Z,61.16
2019-03-20T08:16:17.908Z,59.23
2019-03-20T08:18:46.082Z,60.15
2019-03-20T08:21:14.394Z,59.35
2019-03-20T08:23:42.519Z,59.70
2019-03-20T08:26:10.798Z,59.45
2019-03-20T08:28:38.951Z,60.00
2019-03-20T08:31:07.230Z,59.12
2019-03-20T08:33:35.358Z,59.55
2019-03-20T08:36:03.554Z,56.14
2019-03-20T08:38:31.705Z,58.19
2019-03-20T08:40:59.877Z,58.75
2019-03-20T08:43:28.186Z,55.12
2019-03-20T08:45:56.355Z,57.19
2019-03-20T08:48:24.579Z,56.23
2019-03-20T08:50:52.864Z,56.42
2019-03-20T08:53:21.003Z,57.14
2019-03-20T08:55:49.193Z,52.24
2019-03-20T08:58:17.399Z,53.66
2019-03-20T09:00:45.587Z,56.60
2019-03-20T09:03:13.821Z,57.19
2019-03-20T09:05:42.101Z,56.33
2019-03-20T09:08:10.315Z,56.10
2019-03-20T09:10:38.643Z,52.29
2019-03-20T09:13:06.810Z,53.03
2019-03-20T09:15:35.260Z,56.69
2019-03-20T09:18:03.444Z,50.22
2019-03-20T09:20:31.673Z,47.49
2019-03-20T09:22:59.888Z,55.10
2019-03-20T09:25:28.194Z,55.87
2019-03-20T09:27:56.358Z,46.73
2019-03-20T09:30:24.761Z,52.33
2019-03-20T09:32:52.980Z,46.71
2019-03-20T09:35:21.380Z,48.56
2019-03-20T09:37:52.237Z,56.84
2019-03-20T09:40:19.632Z,44.92
2019-03-20T09:42:47.810Z,50.96
2019-03-20T09:45:16.640Z,55.47
2019-03-20T09:47:44.930Z,55.02
2019-03-20T09:50:14.941Z,45.57
2019-03-20T09:52:43.238Z,45.08
2019-03-20T09:55:11.498Z,44.90
2019-03-20T09:57:39.792Z,54.58
2019-03-20T10:00:15.375Z,54.88
2019-03-20T10:02:43.777Z,49.08
2019-03-20T10:05:11.989Z,59.32
2019-03-20T10:07:40.213Z,45.26
2019-03-20T10:10:09.275Z,53.27
2019-03-20T10:12:37.529Z,52.43
2019-03-20T10:15:07.557Z,49.92
2019-03-20T10:17:35.708Z,43.23
2019-03-20T10:20:04.346Z,50.02
2019-03-20T10:22:32.758Z,52.11
2019-03-20T10:25:00.992Z,53.41
2019-03-20T10:27:29.131Z,47.29
2019-03-20T10:29:57.289Z,51.72
2019-03-20T10:32:25.595Z,53.34
2019-03-20T10:34:54.343Z,45.54
2019-03-20T10:37:22.606Z,45.75
2019-03-20T10:39:50.762Z,50.60
2019-03-20T10:42:18.977Z,51.27
2019-03-20T10:44:47.160Z,44.86
2019-03-20T10:47:15.449Z,48.80
2019-03-20T10:49:43.802Z,47.91
2019-03-20T10:52:11.938Z,42.84
2019-03-20T10:54:40.276Z,41.89
2019-03-20T10:57:08.596Z,46.72
2019-03-20T10:59:36.778Z,44.87
2019-03-20T11:02:05.369Z,44.25
2019-03-20T11:04:33.591Z,46.73
2019-03-20T11:07:01.804Z,41.28
2019-03-20T11:09:29.990Z,40.85
2019-03-20T11:11:58.255Z,48.65
2019-03-20T11:14:26.427Z,48.65
2019-03-20T11:16:54.801Z,42.21
2019-03-20T11:19:22.983Z,42.21
2019-03-20T11:21:51.172Z,43.33
2019-03-20T11:24:19.392Z,40.35
2019-03-20T11:26:47.570Z,40.47
2019-03-20T11:29:21.264Z,41.49
2019-03-20T11:31:45.728Z,46.26
2019-03-20T11:34:13.979Z,37.14
2019-03-20T11:36:42.195Z,41.67
2019-03-20T11:39:10.831Z,41.57
2019-03-20T11:41:38.989Z,48.08
2019-03-20T11:44:07.185Z,43.13
2019-03-20T11:46:35.560Z,42.05
2019-03-20T11:49:03.781Z,41.85
2019-03-20T11:51:31.949Z,51.23
2019-03-20T11:54:00.180Z,46.04
2019-03-20T11:56:28.322Z,35.19
2019-03-20T11:58:56.529Z,50.47
2019-03-20T12:01:24.827Z,37.76
2019-03-20T12:03:53.090Z,52.91
2019-03-20T12:06:21.337Z,45.44
2019-03-20T12:08:49.744Z,40.18
2019-03-20T12:11:17.950Z,39.79
2019-03-20T12:13:46.267Z,40.56
2019-03-20T12:16:14.494Z,55.47
2019-03-20T12:18:43.950Z,55.47
2019-03-20T12:21:12.241Z,37.90
2019-03-20T12:23:40.518Z,52.96
2019-03-20T12:26:08.740Z,52.86
2019-03-20T12:28:36.875Z,44.24
2019-03-20T12:31:06.709Z,49.09
2019-03-20T12:33:35.444Z,45.66
2019-03-20T12:36:03.619Z,50.81
2019-03-20T12:38:32.005Z,43.08
2019-03-20T12:41:00.181Z,47.20
2019-03-20T12:43:28.471Z,44.39
2019-03-20T12:45:56.774Z,42.31
2019-03-20T12:48:25.002Z,55.33
2019-03-20T12:50:53.331Z,55.43
2019-03-20T12:53:21.917Z,52.86
2019-03-20T12:55:50.041Z,52.86
2019-03-20T12:58:18.433Z,43.25
2019-03-20T13:03:16.917Z,56.60
2019-03-20T13:05:45.455Z,49.89
2019-03-20T13:08:13.744Z,50.14
2019-03-20T13:10:42.027Z,42.11
2019-03-20T13:13:10.400Z,43.71
2019-03-20T13:15:38.588Z,49.80
2019-03-20T13:18:06.882Z,43.50
2019-03-20T13:20:35.120Z,50.63
2019-03-20T13:23:06.244Z,48.67
2019-03-20T13:25:34.676Z,42.57
2019-03-20T13:28:03.104Z,49.10
2019-03-20T13:30:34.564Z,49.84
2019-03-20T13:33:03.015Z,44.30
2019-03-20T13:35:31.270Z,56.03
2019-03-20T13:37:59.490Z,52.32
2019-03-20T13:40:27.769Z,53.38
2019-03-20T13:42:56.112Z,45.88
2019-03-20T13:45:24.422Z,45.93
2019-03-20T13:47:52.824Z,45.50
2019-03-20T13:50:21.061Z,51.01
2019-03-20T13:52:49.363Z,50.93
2019-03-20T13:55:17.851Z,46.14
2019-03-20T13:57:46.062Z,53.98
2019-03-20T14:00:16.581Z,55.39
2019-03-20T14:02:44.805Z,46.59
2019-03-20T14:05:13.244Z,56.02
2019-03-20T14:07:41.436Z,47.80
2019-03-20T14:10:10.991Z,47.45
2019-03-20T14:12:39.277Z,48.06
2019-03-20T14:15:08.270Z,47.77
2019-03-20T14:17:36.502Z,45.05
2019-03-20T14:20:07.108Z,50.78
2019-03-20T14:22:35.467Z,47.18
2019-03-20T14:25:03.950Z,49.71
2019-03-20T14:27:32.160Z,52.79
2019-03-20T14:30:00.429Z,46.63
2019-03-20T14:32:28.696Z,51.26
2019-03-20T14:34:57.088Z,45.23
2019-03-20T14:37:25.270Z,48.21
2019-03-20T14:39:53.613Z,55.88
2019-03-20T14:42:21.965Z,47.65
2019-03-20T14:44:51.802Z,54.84
2019-03-20T14:47:20.080Z,46.73
2019-03-20T14:49:48.910Z,46.72
2019-03-20T14:52:17.221Z,47.25
2019-03-20T14:54:45.465Z,53.25
2019-03-20T14:57:13.724Z,49.91
2019-03-20T14:59:41.907Z,52.91
2019-03-20T15:02:10.253Z,46.30
2019-03-20T15:04:38.611Z,52.66
2019-03-20T15:07:07.107Z,51.33
2019-03-20T15:09:35.766Z,49.47
2019-03-20T15:12:04.233Z,55.31
2019-03-20T15:14:32.412Z,44.31
2019-03-20T15:17:00.799Z,46.86
2019-03-20T15:19:29.320Z,46.79
2019-03-20T15:21:57.586Z,46.96
2019-03-20T15:24:26.490Z,49.81
2019-03-20T15:26:55.014Z,55.40
2019-03-20T15:29:23.379Z,57.00
2019-03-20T15:31:51.683Z,57.00
2019-03-20T15:34:19.997Z,48.21
2019-03-20T15:36:48.251Z,58.40
2019-03-20T15:39:16.538Z,48.83
2019-03-20T15:41:44.765Z,50.42
2019-03-20T15:44:13.096Z,56.57
2019-03-20T15:46:41.396Z,56.36
2019-03-20T15:49:09.658Z,55.30
2019-03-20T15:51:37.861Z,50.08
2019-03-20T15:54:06.138Z,48.32
2019-03-20T15:56:34.329Z,52.14
2019-03-20T15:59:02.754Z,48.68
2019-03-20T16:01:31.054Z,54.03
2019-03-20T16:03:59.375Z,50.14
2019-03-20T16:06:27.696Z,56.78
2019-03-20T16:08:56.960Z,57.40
2019-03-20T16:11:34.498Z,49.08
2019-03-20T16:14:02.918Z,48.60
2019-03-20T16:16:31.484Z,55.14
2019-03-20T16:18:59.809Z,48.14
2019-03-20T16:21:28.211Z,50.44
2019-03-20T16:23:56.588Z,49.25
2019-03-20T16:26:24.909Z,49.25
2019-03-20T16:28:53.429Z,52.59
2019-03-20T16:31:21.917Z,52.26
2019-03-20T16:33:50.447Z,56.37
2019-03-20T16:36:18.791Z,49.24
2019-03-20T16:38:47.109Z,56.67
2019-03-20T16:41:17.043Z,56.52
2019-03-20T16:43:45.504Z,49.43
2019-03-20T16:46:13.893Z,53.40
2019-03-20T16:48:42.603Z,51.30
2019-03-20T16:51:11.031Z,56.84
2019-03-20T16:53:39.702Z,54.83
2019-03-20T16:56:08.395Z,50.08
2019-03-20T16:58:36.746Z,55.74
2019-03-20T17:01:05.109Z,54.70
2019-03-20T17:03:33.440Z,55.81
2019-03-20T17:06:01.980Z,55.81
2019-03-20T17:08:30.504Z,50.24
2019-03-20T17:10:59.040Z,56.88
2019-03-20T17:13:27.295Z,50.34
2019-03-20T17:15:55.604Z,55.54
2019-03-20T17:18:23.835Z,52.20
2019-03-20T17:20:52.497Z,51.42
2019-03-20T17:23:21.730Z,51.63
2019-03-20T17:25:49.934Z,56.97
2019-03-20T17:28:18.340Z,55.97
2019-03-20T17:30:47.829Z,55.45
2019-03-20T17:33:16.340Z,55.72
2019-03-20T17:35:44.757Z,55.72
2019-03-20T17:38:13.732Z,55.03
2019-03-20T17:40:41.933Z,52.31
2019-03-20T17:43:11.549Z,56.59
2019-03-20T17:45:39.950Z,54.18
2019-03-20T17:48:08.944Z,55.17
2019-03-20T17:50:37.309Z,55.10
2019-03-20T17:53:05.908Z,52.45
2019-03-20T17:55:35.131Z,54.81
2019-03-20T17:58:03.959Z,55.73
2019-03-20T18:00:37.691Z,55.66
2019-03-20T18:03:06.504Z,55.45
2019-03-20T18:05:35.919Z,55.42
2019-03-20T18:08:04.851Z,55.81
2019-03-20T18:10:33.899Z,55.55
2019-03-20T18:13:02.458Z,55.49
2019-03-20T18:15:31.292Z,55.59
2019-03-20T18:18:00.312Z,55.92
2019-03-20T18:20:28.738Z,55.94
2019-03-20T18:22:57.240Z,55.99
2019-03-20T18:25:25.935Z,55.76
2019-03-20T18:27:54.588Z,56.31
2019-03-20T18:30:43.935Z,56.31
2019-03-20T18:33:13.514Z,56.24
2019-03-20T18:35:42.370Z,56.70
2019-03-20T18:38:10.998Z,56.38
2019-03-20T18:40:39.999Z,56.42
2019-03-20T18:43:08.862Z,56.34
2019-03-20T18:45:37.826Z,56.33
2019-03-20T18:48:06.926Z,56.60
2019-03-20T18:50:35.974Z,56.63
2019-03-20T18:53:05.674Z,56.49
2019-03-20T18:55:34.608Z,56.68
2019-03-20T18:58:03.989Z,56.67
2019-03-20T19:00:33.714Z,56.68
2019-03-20T19:03:03.795Z,57.19
2019-03-20T19:05:43.386Z,56.88
2019-03-20T19:08:13.480Z,56.92
2019-03-20T19:10:42.055Z,57.43
2019-03-20T19:13:10.702Z,59.90
2019-03-20T19:15:39.499Z,57.92
2019-03-20T19:18:08.425Z,60.53
2019-03-20T19:20:36.858Z,58.04
2019-03-20T19:23:05.682Z,57.66
2019-03-20T19:25:34.738Z,57.46
2019-03-20T19:28:03.137Z,57.38
2019-03-20T19:30:32.249Z,58.24
2019-03-20T19:33:01.097Z,57.35
2019-03-20T19:35:30.346Z,57.60
2019-03-20T19:37:59.811Z,57.20
2019-03-20T19:40:28.879Z,57.72
2019-03-20T19:42:58.282Z,57.70
2019-03-20T19:45:27.564Z,57.60
2019-03-20T19:47:56.828Z,57.63
2019-03-20T19:50:26.836Z,57.76
2019-03-20T19:52:56.574Z,57.82
2019-03-20T19:55:26.379Z,57.92
2019-03-20T19:57:55.959Z,57.85
2019-03-20T20:00:25.899Z,57.74
2019-03-20T20:02:55.742Z,58.09
2019-03-20T20:05:25.693Z,57.78
2019-03-20T20:07:55.272Z,58.37
2019-03-20T20:10:27.983Z,58.20
2019-03-20T20:12:57.082Z,58.78
2019-03-20T20:15:27.120Z,58.35
2019-03-20T20:17:56.251Z,58.71
2019-03-20T20:20:27.701Z,58.71
2019-03-20T20:22:56.994Z,58.50
2019-03-20T20:25:26.975Z,58.47
2019-03-20T20:27:56.447Z,58.87
2019-03-20T20:30:26.039Z,59.10
2019-03-20T20:32:55.383Z,58.95
2019-03-20T20:35:24.704Z,59.25
2019-03-20T20:37:53.389Z,60.42
2019-03-20T20:40:22.573Z,59.53
2019-03-20T20:42:52.225Z,61.20
2019-03-20T20:45:21.578Z,62.52
2019-03-20T20:47:50.017Z,59.85
2019-03-20T20:50:19.999Z,59.24
2019-03-20T20:52:49.120Z,59.58
2019-03-20T20:55:17.892Z,59.10
2019-03-20T20:57:47.104Z,67.67
2019-03-20T21:00:20.316Z,60.33
2019-03-20T21:02:49.224Z,68.00
2019-03-20T21:05:17.577Z,70.44
2019-03-20T21:07:46.959Z,71.31
2019-03-20T21:10:15.961Z,62.78
2019-03-20T21:12:55.679Z,65.17
2019-03-20T21:15:20.956Z,70.20
2019-03-20T21:18:25.761Z,70.26
2019-03-20T21:20:54.551Z,67.18
2019-03-20T21:24:08.517Z,62.19
2019-03-20T21:26:40.569Z,63.29
2019-03-20T21:29:58.635Z,60.64
2019-03-20T21:32:35.539Z,59.62
2019-03-20T21:35:41.985Z,59.60
2019-03-20T21:38:10.889Z,59.88
2019-03-20T21:41:24.835Z,59.95
2019-03-20T21:44:05.500Z,61.91
2019-03-20T21:47:17.659Z,60.08
2019-03-20T21:49:46.506Z,59.67
2019-03-20T21:52:15.339Z,64.16
2019-03-20T21:55:29.527Z,60.65
2019-03-20T21:58:19.852Z,67.98
2019-03-20T22:01:33.524Z,61.08
2019-03-20T22:04:02.556Z,64.08
2019-03-20T22:07:08.741Z,61.35
2019-03-20T22:10:31.368Z,71.33
2019-03-20T22:13:33.856Z,62.01
2019-03-20T22:16:48.175Z,60.69
2019-03-20T22:19:49.015Z,63.83
2019-03-20T22:22:57.101Z,61.78
2019-03-20T22:25:43.875Z,69.78
2019-03-20T22:28:49.127Z,61.38
2019-03-20T22:31:17.980Z,67.64
2019-03-20T22:34:21.603Z,61.08
2019-03-20T22:36:50.369Z,61.57
2019-03-20T22:40:11.520Z,60.86
2019-03-20T22:42:47.809Z,60.52
2019-03-20T22:45:47.523Z,60.95
2019-03-20T22:49:02.535Z,60.77
2019-03-20T22:51:45.817Z,61.47
2019-03-20T22:54:59.466Z,60.62
2019-03-20T22:57:43.383Z,60.89
2019-03-20T23:00:12.219Z,60.35
2019-03-20T23:03:03.781Z,60.16
2019-03-20T23:05:32.644Z,60.25
2019-03-20T23:08:01.512Z,61.00
2019-03-20T23:10:30.318Z,62.98
2019-03-20T23:12:59.092Z,61.87
2019-03-20T23:15:28.226Z,60.12
2019-03-20T23:17:56.982Z,60.56
2019-03-20T23:20:26.578Z,60.34
2019-03-20T23:22:55.469Z,61.79
2019-03-20T23:25:24.168Z,59.36
2019-03-20T23:27:53.012Z,60.09
2019-03-20T23:30:24.014Z,59.36
2019-03-20T23:32:52.708Z,68.96
2019-03-20T23:35:21.731Z,61.60
2019-03-20T23:37:50.372Z,64.75
2019-03-20T23:40:19.141Z,73.78
2019-03-20T23:42:48.344Z,76.01
2019-03-20T23:45:17.803Z,73.81
2019-03-20T23:48:02.353Z,76.56
2019-03-20T23:50:30.962Z,73.05
2019-03-20T23:52:59.641Z,76.02
2019-03-20T23:55:28.339Z,76.96
2019-03-20T23:57:57.010Z,77.14
